createdAt,value
2022-12-09T00:01:06.170Z,100290.41
2022-12-09T00:03:34.498Z,100296.28
2022-12-09T00:06:24.718Z,100296.19
2022-12-09T00:08:53.046Z,100295.66
2022-12-09T00:11:21.586Z,100300.47
2022-12-09T00:13:54.372Z,100302.88
2022-12-09T00:16:22.900Z,100301.84
2022-12-09T00:18:51.424Z,100297.28
2022-12-09T00:21:22.636Z,100297.28
2022-12-09T00:23:52.149Z,100282.31
2022-12-09T00:26:21.373Z,100288.00
2022-12-09T00:28:50.397Z,100288.81
2022-12-09T00:31:24.583Z,100286.41
2022-12-09T00:33:55.494Z,100282.97
2022-12-09T00:36:24.211Z,100289.25
2022-12-09T00:38:53.021Z,100287.06
2022-12-09T00:41:21.065Z,100298.44
2022-12-09T00:43:48.916Z,100294.47
2022-12-09T00:46:16.736Z,100285.25
2022-12-09T00:48:46.064Z,100293.03
2022-12-09T00:51:16.655Z,100292.78
2022-12-09T00:53:44.560Z,100283.13
2022-12-09T00:56:12.196Z,100286.72
2022-12-09T00:58:39.893Z,100295.84
2022-12-09T01:01:07.335Z,100291.75
2022-12-09T01:03:35.199Z,100291.84
2022-12-09T01:06:11.987Z,100288.75
2022-12-09T01:08:40.112Z,100287.75
2022-12-09T01:11:21.091Z,100288.53
2022-12-09T01:13:50.398Z,100292.34
2022-12-09T01:16:24.810Z,100289.41
2022-12-09T01:18:54.085Z,100287.56
2022-12-09T01:21:21.537Z,100281.84
2022-12-09T01:23:50.074Z,100273.22
2022-12-09T01:26:17.950Z,100278.94
2022-12-09T01:28:45.497Z,100275.44
2022-12-09T01:31:15.784Z,100274.94
2022-12-09T01:33:44.711Z,100271.94
2022-12-09T01:36:16.870Z,100264.44
2022-12-09T01:38:45.682Z,100255.75
2022-12-09T01:41:14.319Z,100259.81
2022-12-09T01:43:42.314Z,100249.34
2022-12-09T01:46:09.899Z,100245.06
2022-12-09T01:48:41.748Z,100247.97
2022-12-09T01:51:19.963Z,100242.06
2022-12-09T01:53:50.807Z,100239.97
2022-12-09T01:56:29.281Z,100243.06
2022-12-09T01:59:00.639Z,100234.47
2022-12-09T02:01:29.117Z,100231.78
2022-12-09T02:03:57.028Z,100229.38
2022-12-09T02:06:24.464Z,100213.41
2022-12-09T02:08:52.973Z,100209.31
2022-12-09T02:11:29.670Z,100196.81
2022-12-09T02:14:03.561Z,100197.13
2022-12-09T02:16:40.356Z,100195.75
2022-12-09T02:19:15.048Z,100199.00
2022-12-09T02:21:53.198Z,100188.44
2022-12-09T02:24:30.325Z,100200.44
2022-12-09T02:27:05.926Z,100188.72
2022-12-09T02:29:45.590Z,100172.63
2022-12-09T02:32:37.830Z,100175.84
2022-12-09T02:35:14.757Z,100171.25
2022-12-09T02:37:53.466Z,100168.84
2022-12-09T02:40:44.766Z,100162.16
2022-12-09T02:43:14.513Z,100160.84
2022-12-09T02:45:44.097Z,100159.44
2022-12-09T02:48:15.210Z,100153.75
2022-12-09T02:50:45.275Z,100140.06
2022-12-09T02:53:14.770Z,100142.69
2022-12-09T02:55:45.511Z,100134.69
2022-12-09T02:58:12.954Z,100141.06
2022-12-09T03:00:41.251Z,100128.97
2022-12-09T03:03:15.196Z,100122.00
2022-12-09T03:05:56.399Z,100119.66
2022-12-09T03:08:26.877Z,100121.78
2022-12-09T03:11:08.335Z,100112.69
2022-12-09T03:13:52.007Z,100117.59
2022-12-09T03:16:34.087Z,100100.69
2022-12-09T03:19:09.317Z,100106.59
2022-12-09T03:21:44.069Z,100093.31
2022-12-09T03:24:15.379Z,100092.78
2022-12-09T03:26:43.838Z,100083.91
2022-12-09T03:29:17.646Z,100085.53
2022-12-09T03:31:47.252Z,100074.75
2022-12-09T03:34:20.144Z,100069.53
2022-12-09T03:36:53.842Z,100059.53
2022-12-09T03:39:27.346Z,100066.34
2022-12-09T03:42:02.935Z,100061.53
2022-12-09T03:44:43.157Z,100073.81
2022-12-09T03:47:11.458Z,100071.63
2022-12-09T03:49:39.852Z,100074.81
2022-12-09T03:52:30.681Z,100065.03
2022-12-09T03:55:03.178Z,100046.75
2022-12-09T03:57:32.442Z,100034.25
2022-12-09T04:00:01.985Z,100031.56
2022-12-09T04:02:40.512Z,100029.97
2022-12-09T04:05:08.623Z,100013.69
2022-12-09T04:07:36.124Z,100011.47
2022-12-09T04:10:04.993Z,100020.28
2022-12-09T04:12:32.738Z,100007.00
2022-12-09T04:15:00.118Z,100008.28
2022-12-09T04:17:27.990Z,100010.50
2022-12-09T04:19:55.657Z,100016.00
2022-12-09T04:22:23.113Z,100008.19
2022-12-09T04:24:50.450Z,99999.72
2022-12-09T04:27:18.335Z,99999.31
2022-12-09T04:29:45.790Z,99990.81
2022-12-09T04:32:13.500Z,99986.44
2022-12-09T04:34:40.862Z,99991.94
2022-12-09T04:37:08.278Z,99985.66
2022-12-09T04:39:36.040Z,99992.03
2022-12-09T04:42:03.968Z,99994.63
2022-12-09T04:44:31.595Z,99985.75
2022-12-09T04:46:59.271Z,99990.03
2022-12-09T04:49:28.920Z,99983.13
2022-12-09T04:51:56.387Z,99974.44
2022-12-09T04:54:24.168Z,99983.94
2022-12-09T04:56:52.001Z,99986.22
2022-12-09T04:59:19.690Z,99977.34
2022-12-09T05:01:47.334Z,99967.84
2022-12-09T05:04:15.494Z,99972.75
2022-12-09T05:06:43.415Z,99981.63
2022-12-09T05:09:16.126Z,99972.16
2022-12-09T05:11:43.785Z,99977.03
2022-12-09T05:14:11.365Z,99974.53
2022-12-09T05:16:39.294Z,99975.44
2022-12-09T05:19:07.113Z,99967.66
2022-12-09T05:21:34.690Z,99960.38
2022-12-09T05:24:03.736Z,99955.66
2022-12-09T05:26:32.286Z,99956.47
2022-12-09T05:29:00.115Z,99954.56
2022-12-09T05:31:27.616Z,99958.25
2022-12-09T05:33:55.533Z,99963.13
2022-12-09T05:36:25.305Z,99942.38
2022-12-09T05:38:53.568Z,99946.03
2022-12-09T05:41:22.945Z,99942.28
2022-12-09T05:44:09.505Z,99938.38
2022-12-09T05:46:37.427Z,99931.88
2022-12-09T05:49:06.442Z,99933.47
2022-12-09T05:51:34.046Z,99934.47
2022-12-09T05:54:03.485Z,99929.38
2022-12-09T05:56:31.213Z,99927.47
2022-12-09T05:58:59.526Z,99916.09
2022-12-09T06:01:27.930Z,99917.56
2022-12-09T06:03:55.917Z,99925.47
2022-12-09T06:06:31.408Z,99923.56
2022-12-09T06:09:02.233Z,99930.53
2022-12-09T06:11:32.402Z,99918.78
2022-12-09T06:14:00.229Z,99914.47
2022-12-09T06:16:28.151Z,99900.97
2022-12-09T06:18:56.201Z,99901.59
2022-12-09T06:21:24.396Z,99908.00
2022-12-09T06:23:52.881Z,99898.41
2022-12-09T06:26:26.414Z,99897.22
2022-12-09T06:28:55.521Z,99893.19
2022-12-09T06:31:24.909Z,99882.63
2022-12-09T06:33:55.577Z,99869.59
2022-12-09T06:36:24.985Z,99867.69
2022-12-09T06:38:52.682Z,99854.41
2022-12-09T06:41:20.642Z,99845.53
2022-12-09T06:43:48.815Z,99852.63
2022-12-09T06:46:24.645Z,99852.16
2022-12-09T06:48:54.060Z,99864.53
2022-12-09T06:51:23.648Z,99858.13
2022-12-09T06:53:51.363Z,99867.03
2022-12-09T06:56:19.100Z,99861.47
2022-12-09T06:58:47.501Z,99864.44
2022-12-09T07:01:21.276Z,99855.69
2022-12-09T07:03:52.257Z,99855.38
2022-12-09T07:06:30.980Z,99859.25
2022-12-09T07:09:10.586Z,99861.34
2022-12-09T07:11:39.159Z,99870.84
2022-12-09T07:14:06.774Z,99865.63
2022-12-09T07:16:35.204Z,99867.59
2022-12-09T07:19:03.723Z,99880.00
2022-12-09T07:21:32.633Z,99876.31
2022-12-09T07:24:01.586Z,99872.94
2022-12-09T07:26:33.771Z,99871.06
2022-12-09T07:29:04.563Z,99872.97
2022-12-09T07:31:33.485Z,99866.97
2022-12-09T07:34:02.073Z,99873.06
2022-12-09T07:36:31.578Z,99864.28
2022-12-09T07:39:05.609Z,99869.09
2022-12-09T07:41:33.851Z,99860.59
2022-12-09T07:44:01.405Z,99864.16
2022-12-09T07:46:29.300Z,99855.72
2022-12-09T07:48:58.268Z,99837.31
2022-12-09T07:51:26.214Z,99836.25
2022-12-09T07:53:54.329Z,99833.81
2022-12-09T07:56:23.535Z,99834.81
2022-12-09T07:58:54.084Z,99834.41
2022-12-09T08:01:24.697Z,99817.75
2022-12-09T08:03:53.315Z,99820.25
2022-12-09T08:06:24.802Z,99805.78
2022-12-09T08:08:52.992Z,99793.66
2022-12-09T08:11:24.455Z,99790.03
2022-12-09T08:13:53.151Z,99796.53
2022-12-09T08:16:22.885Z,99798.13
2022-12-09T08:18:52.035Z,99800.75
2022-12-09T08:21:28.511Z,99799.09
2022-12-09T08:23:58.243Z,99803.22
2022-12-09T08:26:28.064Z,99816.03
2022-12-09T08:28:56.355Z,99814.53
2022-12-09T08:31:25.662Z,99808.69
2022-12-09T08:33:53.975Z,99815.38
2022-12-09T08:36:24.756Z,99820.56
2022-12-09T08:38:54.570Z,99833.94
2022-12-09T08:41:35.385Z,99834.28
2022-12-09T08:44:07.922Z,99832.22
2022-12-09T08:46:38.066Z,99825.72
2022-12-09T08:49:07.314Z,99787.63
2022-12-09T08:51:35.889Z,99778.31
2022-12-09T08:54:04.972Z,99779.97
2022-12-09T08:56:35.440Z,99768.63
2022-12-09T08:59:03.928Z,99776.25
2022-12-09T09:01:35.926Z,99769.47
2022-12-09T09:04:09.226Z,99770.44
2022-12-09T09:06:38.432Z,99761.50
2022-12-09T09:09:07.937Z,99759.41
2022-12-09T09:11:39.443Z,99741.72
2022-12-09T09:14:11.717Z,99739.13
2022-12-09T09:16:42.150Z,99734.91
2022-12-09T09:19:16.011Z,99734.72
2022-12-09T09:21:43.803Z,99737.84
2022-12-09T09:24:14.436Z,99720.56
2022-12-09T09:26:44.258Z,99701.69
2022-12-09T09:29:13.484Z,99700.94
2022-12-09T09:31:41.912Z,99709.81
2022-12-09T09:34:10.388Z,99712.34
2022-12-09T09:36:40.352Z,99722.25
2022-12-09T09:39:08.426Z,99718.81
2022-12-09T09:41:51.760Z,99717.13
2022-12-09T09:44:22.613Z,99724.47
2022-12-09T09:46:54.743Z,99716.91
2022-12-09T09:49:46.156Z,99715.63
2022-12-09T09:52:19.045Z,99734.50
2022-12-09T09:54:47.392Z,99710.84
2022-12-09T09:57:22.131Z,99705.31
2022-12-09T10:00:08.846Z,99706.09
2022-12-09T10:02:46.145Z,99702.28
2022-12-09T10:05:33.011Z,99691.16
2022-12-09T10:08:33.579Z,99679.84
2022-12-09T10:11:23.432Z,99680.31
2022-12-09T10:13:52.590Z,99678.75
2022-12-09T10:16:25.038Z,99686.84
2022-12-09T10:19:09.674Z,99660.94
2022-12-09T10:21:42.505Z,99655.53
2022-12-09T10:24:24.069Z,99650.03
2022-12-09T10:27:06.187Z,99643.31
2022-12-09T10:29:43.400Z,99646.50
2022-12-09T10:32:18.152Z,99638.44
2022-12-09T10:34:47.727Z,99634.97
2022-12-09T10:37:28.486Z,99642.72
2022-12-09T10:40:20.249Z,99637.31
2022-12-09T10:43:09.599Z,99610.97
2022-12-09T10:46:16.931Z,99593.97
2022-12-09T10:48:37.633Z,99594.59
2022-12-09T10:51:12.275Z,99572.84
2022-12-09T10:53:56.305Z,99549.53
2022-12-09T10:57:05.140Z,99544.75
2022-12-09T10:59:34.068Z,99547.47
2022-12-09T11:02:09.795Z,99544.44
2022-12-09T11:04:43.440Z,99543.81
2022-12-09T11:07:21.164Z,99547.59
2022-12-09T11:09:51.263Z,99561.25
2022-12-09T11:12:30.955Z,99554.28
2022-12-09T11:15:11.867Z,99553.63
2022-12-09T11:17:58.449Z,99558.22
2022-12-09T11:20:29.657Z,99563.44
2022-12-09T11:23:15.991Z,99562.97
2022-12-09T11:26:00.187Z,99542.03
2022-12-09T11:28:39.471Z,99515.34
2022-12-09T11:34:17.973Z,99466.44
2022-12-09T11:36:51.949Z,99457.28
2022-12-09T11:39:27.616Z,99455.81
2022-12-09T11:42:18.599Z,99466.94
2022-12-09T11:45:16.754Z,99484.25
2022-12-09T11:50:37.152Z,99472.03
2022-12-09T11:53:13.161Z,99478.53
2022-12-09T11:55:51.257Z,99466.78
2022-12-09T11:58:30.441Z,99464.72
2022-12-09T12:01:14.260Z,99448.84
2022-12-09T12:03:49.147Z,99440.38
2022-12-09T12:06:24.299Z,99431.38
2022-12-09T12:08:58.769Z,99442.00
2022-12-09T12:11:40.599Z,99431.19
2022-12-09T12:14:18.975Z,99429.47
2022-12-09T12:16:57.332Z,99425.34
2022-12-09T12:19:35.078Z,99417.69
2022-12-09T12:22:31.520Z,99418.66
2022-12-09T12:25:21.842Z,99438.34
2022-12-09T12:28:04.325Z,99474.88
2022-12-09T12:30:57.846Z,99481.41
2022-12-09T12:34:16.131Z,99501.41
2022-12-09T12:37:17.282Z,99484.25
2022-12-09T12:40:07.220Z,99451.84
2022-12-09T12:43:22.776Z,99431.84
2022-12-09T12:46:17.848Z,99419.78
2022-12-09T12:49:24.341Z,99411.97
2022-12-09T12:52:39.417Z,99424.34
2022-12-09T12:55:26.051Z,99416.09
2022-12-09T12:58:14.320Z,99417.84
2022-12-09T13:01:07.468Z,99419.56
2022-12-09T13:04:06.630Z,99417.53
2022-12-09T13:06:40.849Z,99424.81
2022-12-09T13:09:18.919Z,99431.31
2022-12-09T13:11:58.842Z,99422.59
2022-12-09T13:14:33.857Z,99402.25
2022-12-09T13:17:05.546Z,99398.44
2022-12-09T13:19:44.605Z,99396.88
2022-12-09T13:22:36.609Z,99392.09
2022-12-09T13:25:39.798Z,99396.56
2022-12-09T13:28:24.900Z,99384.00
2022-12-09T13:30:59.558Z,99365.28
2022-12-09T13:33:55.171Z,99372.69
2022-12-09T13:36:46.462Z,99364.91
2022-12-09T13:39:39.522Z,99364.75
2022-12-09T13:42:55.350Z,99394.63
2022-12-09T13:45:34.644Z,99405.44
2022-12-09T13:48:09.601Z,99414.66
2022-12-09T13:50:57.711Z,99395.16
2022-12-09T13:53:33.763Z,99385.47
2022-12-09T13:56:04.239Z,99381.97
2022-12-09T13:58:55.985Z,99371.81
2022-12-09T14:01:28.132Z,99368.63
2022-12-09T14:04:15.586Z,99367.47
2022-12-09T14:06:45.618Z,99372.75
2022-12-09T14:09:49.057Z,99365.09
2022-12-09T14:12:25.613Z,99363.34
2022-12-09T14:14:58.636Z,99382.72
2022-12-09T14:17:25.937Z,99408.47
2022-12-09T14:20:14.907Z,99407.00
2022-12-09T14:23:02.029Z,99400.81
2022-12-09T14:25:29.323Z,99391.31
2022-12-09T14:28:21.003Z,99399.44
2022-12-09T14:30:51.127Z,99387.66
2022-12-09T14:33:31.822Z,99395.75
2022-12-09T14:36:21.853Z,99401.50
2022-12-09T14:39:24.368Z,99395.94
2022-12-09T14:42:02.092Z,99387.03
2022-12-09T14:44:39.981Z,99398.31
2022-12-09T14:47:24.251Z,99387.81
2022-12-09T14:49:54.024Z,99392.56
2022-12-09T14:52:33.062Z,99394.97
2022-12-09T14:55:04.726Z,99388.63
2022-12-09T14:57:44.036Z,99384.34
2022-12-09T15:00:32.211Z,99378.94
2022-12-09T15:06:17.733Z,99388.63
2022-12-09T15:08:45.796Z,99378.94
2022-12-09T15:11:27.299Z,99373.84
2022-12-09T15:14:20.551Z,99368.13
2022-12-09T15:16:50.895Z,99361.63
2022-12-09T15:19:58.627Z,99360.50
2022-12-09T15:22:24.046Z,99360.31
2022-12-09T15:24:52.704Z,99355.41
2022-12-09T15:27:22.657Z,99362.72
2022-12-09T15:29:50.603Z,99357.34
2022-12-09T15:32:28.195Z,99363.03
2022-12-09T15:34:56.015Z,99362.06
2022-12-09T15:37:28.741Z,99354.91
2022-12-09T15:40:08.494Z,99363.97
2022-12-09T15:42:40.290Z,99342.69
2022-12-09T15:45:12.932Z,99344.13
2022-12-09T15:47:51.433Z,99333.00
2022-12-09T15:50:22.944Z,99336.97
2022-12-09T15:52:54.510Z,99344.00
2022-12-09T15:55:30.845Z,99349.28
2022-12-09T15:58:00.712Z,99351.34
2022-12-09T16:00:28.541Z,99353.56
2022-12-09T16:02:56.408Z,99369.44
2022-12-09T16:05:25.721Z,99361.00
2022-12-09T16:07:56.390Z,99358.97
2022-12-09T16:10:27.044Z,99354.81
2022-12-09T16:13:12.920Z,99354.66
2022-12-09T16:15:45.037Z,99354.47
2022-12-09T16:18:27.156Z,99345.59
2022-12-09T16:20:59.858Z,99345.25
2022-12-09T16:23:27.802Z,99338.75
2022-12-09T16:26:06.691Z,99333.84
2022-12-09T16:28:35.091Z,99329.53
2022-12-09T16:31:25.509Z,99317.44
2022-12-09T16:33:53.032Z,99312.84
2022-12-09T16:36:29.062Z,99314.25
2022-12-09T16:39:08.635Z,99320.31
2022-12-09T16:41:51.125Z,99320.00
2022-12-09T16:44:40.553Z,99330.81
2022-12-09T16:47:11.428Z,99323.97
2022-12-09T16:49:40.550Z,99325.56
2022-12-09T16:52:12.618Z,99323.75
2022-12-09T16:54:42.494Z,99318.06
2022-12-09T16:57:13.145Z,99335.84
2022-12-09T16:59:41.010Z,99335.22
2022-12-09T17:02:34.313Z,99334.22
2022-12-09T17:05:01.988Z,99331.50
2022-12-09T17:07:29.398Z,99329.94
2022-12-09T17:09:56.729Z,99327.09
2022-12-09T17:12:24.175Z,99316.31
2022-12-09T17:14:52.483Z,99309.97
2022-12-09T17:17:19.854Z,99319.50
2022-12-09T17:19:47.213Z,99310.78
2022-12-09T17:22:14.577Z,99321.13
2022-12-09T17:24:42.024Z,99326.84
2022-12-09T17:27:09.491Z,99337.22
2022-12-09T17:29:37.430Z,99337.69
2022-12-09T17:32:05.793Z,99336.25
2022-12-09T17:34:33.138Z,99337.22
2022-12-09T17:37:00.607Z,99333.34
2022-12-09T17:39:29.892Z,99332.44
2022-12-09T17:41:57.278Z,99339.56
2022-12-09T17:44:24.665Z,99324.84
2022-12-09T17:46:52.242Z,99322.44
2022-12-09T17:49:20.006Z,99310.88
2022-12-09T17:51:50.187Z,99309.16
2022-12-09T17:54:17.561Z,99310.56
2022-12-09T17:56:46.658Z,99328.19
2022-12-09T17:59:16.028Z,99325.81
2022-12-09T18:01:45.779Z,99330.59
2022-12-09T18:04:17.512Z,99327.38
2022-12-09T18:06:46.274Z,99322.94
2022-12-09T18:09:16.715Z,99322.63
2022-12-09T18:11:45.180Z,99337.69
2022-12-09T18:14:12.985Z,99331.50
2022-12-09T18:16:40.465Z,99332.00
2022-12-09T18:19:15.264Z,99343.91
2022-12-09T18:21:43.985Z,99339.47
2022-12-09T18:24:11.403Z,99342.63
2022-12-09T18:26:42.132Z,99341.66
2022-12-09T18:29:10.924Z,99351.50
2022-12-09T18:31:39.413Z,99358.47
2022-12-09T18:34:07.113Z,99351.50
2022-12-09T18:36:34.428Z,99358.66
2022-12-09T18:39:01.873Z,99356.91
2022-12-09T18:41:30.897Z,99362.31
2022-12-09T18:44:01.184Z,99358.47
2022-12-09T18:46:36.599Z,99349.09
2022-12-09T18:49:13.043Z,99350.53
2022-12-09T18:51:42.373Z,99349.88
2022-12-09T18:54:16.384Z,99368.47
2022-12-09T18:56:44.133Z,99368.00
2022-12-09T18:59:12.151Z,99354.97
2022-12-09T19:01:45.227Z,99364.22
2022-12-09T19:04:18.994Z,99371.81
2022-12-09T19:06:48.348Z,99378.00
2022-12-09T19:09:19.717Z,99376.06
2022-12-09T19:11:48.432Z,99379.28
2022-12-09T19:14:17.322Z,99361.78
2022-12-09T19:16:45.393Z,99372.41
2022-12-09T19:19:15.593Z,99371.63
2022-12-09T19:21:43.545Z,99381.13
2022-12-09T19:24:16.942Z,99392.28
2022-12-09T19:26:45.033Z,99388.91
2022-12-09T19:29:13.612Z,99371.28
2022-12-09T19:31:45.978Z,99372.91
2022-12-09T19:34:20.164Z,99368.31
2022-12-09T19:36:49.693Z,99369.72
2022-12-09T19:39:19.426Z,99368.47
2022-12-09T19:41:47.047Z,99377.69
2022-12-09T19:44:37.150Z,99386.09
2022-12-09T19:47:07.600Z,99388.47
2022-12-09T19:49:36.313Z,99383.88
2022-12-09T19:52:03.778Z,99383.84
2022-12-09T19:54:31.147Z,99383.50
2022-12-09T19:57:00.816Z,99380.69
2022-12-09T19:59:28.458Z,99379.91
2022-12-09T20:01:56.056Z,99376.38
2022-12-09T20:07:14.852Z,99382.94
2022-12-09T20:09:42.268Z,99378.16
2022-12-09T20:12:09.673Z,99393.25
2022-12-09T20:14:37.051Z,99403.88
2022-12-09T20:17:04.560Z,99398.31
2022-12-09T20:19:31.980Z,99411.34
2022-12-09T20:21:59.317Z,99409.09
2022-12-09T20:24:26.863Z,99412.94
2022-12-09T20:26:56.023Z,99407.22
2022-12-09T20:29:23.433Z,99404.38
2022-12-09T20:31:53.272Z,99398.63
2022-12-09T20:34:23.735Z,99396.56
2022-12-09T20:36:51.432Z,99394.63
2022-12-09T20:39:21.162Z,99398.47
2022-12-09T20:41:48.834Z,99387.47
2022-12-09T20:44:18.347Z,99384.81
2022-12-09T20:46:49.426Z,99383.03
2022-12-09T20:49:17.383Z,99395.59
2022-12-09T20:51:45.433Z,99391.47
2022-12-09T20:54:13.991Z,99383.50
2022-12-09T20:56:42.099Z,99380.81
2022-12-09T20:59:16.062Z,99374.63
2022-12-09T21:01:47.260Z,99371.13
2022-12-09T21:04:15.198Z,99372.25
2022-12-09T21:06:42.988Z,99371.66
2022-12-09T21:09:14.856Z,99376.06
2022-12-09T21:11:45.836Z,99384.63
2022-12-09T21:14:14.501Z,99378.44
2022-12-09T21:16:52.298Z,99379.56
2022-12-09T21:19:24.718Z,99385.13
2022-12-09T21:21:52.790Z,99378.50
2022-12-09T21:24:21.839Z,99385.31
2022-12-09T21:26:49.536Z,99391.03
2022-12-09T21:29:16.945Z,99373.72
2022-12-09T21:31:46.936Z,99390.88
2022-12-09T21:34:14.849Z,99385.63
2022-12-09T21:36:43.997Z,99382.28
2022-12-09T21:39:15.833Z,99376.06
2022-12-09T21:41:43.159Z,99368.63
2022-12-09T21:44:18.647Z,99373.88
2022-12-09T21:46:46.209Z,99369.91
2022-12-09T21:49:14.741Z,99383.22
2022-12-09T21:51:43.486Z,99382.25
2022-12-09T21:54:10.915Z,99379.34
2022-12-09T21:56:38.331Z,99384.00
2022-12-09T21:59:06.953Z,99378.91
2022-12-09T22:01:37.864Z,99380.66
2022-12-09T22:04:08.544Z,99390.34
2022-12-09T22:06:36.382Z,99393.53
2022-12-09T22:09:05.908Z,99379.41
2022-12-09T22:11:36.531Z,99381.75
2022-12-09T22:14:04.256Z,99382.25
2022-12-09T22:16:35.096Z,99378.13
2022-12-09T22:19:03.973Z,99390.84
2022-12-09T22:21:33.571Z,99387.78
2022-12-09T22:24:06.687Z,99396.22
2022-12-09T22:26:34.145Z,99387.00
2022-12-09T22:29:03.283Z,99391.47
2022-12-09T22:31:33.349Z,99392.09
2022-12-09T22:34:13.412Z,99404.78
2022-12-09T22:36:41.456Z,99406.69
2022-12-09T22:39:16.188Z,99400.50
2022-12-09T22:41:45.793Z,99404.00
2022-12-09T22:44:15.424Z,99399.22
2022-12-09T22:46:43.851Z,99411.28
2022-12-09T22:49:13.573Z,99412.25
2022-12-09T22:51:42.171Z,99414.81
2022-12-09T22:54:10.781Z,99406.06
2022-12-09T22:56:40.162Z,99400.97
2022-12-09T22:59:07.949Z,99406.22
2022-12-09T23:01:37.438Z,99405.94
2022-12-09T23:04:06.836Z,99415.44
2022-12-09T23:06:36.672Z,99407.19
2022-12-09T23:09:05.379Z,99406.56
2022-12-09T23:11:32.975Z,99396.38
2022-12-09T23:14:01.058Z,99397.06
2022-12-09T23:16:29.210Z,99379.41
2022-12-09T23:18:57.849Z,99374.50
2022-12-09T23:21:28.638Z,99385.75
2022-12-09T23:23:58.730Z,99389.75
2022-12-09T23:26:29.141Z,99386.25
2022-12-09T23:28:59.691Z,99388.94
2022-12-09T23:31:32.104Z,99395.16
2022-12-09T23:34:00.153Z,99391.16
2022-12-09T23:36:34.627Z,99397.50
2022-12-09T23:39:04.170Z,99407.22
2022-12-09T23:41:31.570Z,99387.84
2022-12-09T23:43:58.943Z,99406.41
2022-12-09T23:46:28.027Z,99399.94
2022-12-09T23:48:56.572Z,99407.84
2022-12-09T23:51:29.897Z,99412.13
2022-12-09T23:54:01.170Z,99402.91
2022-12-09T23:56:31.722Z,99402.44
2022-12-09T23:59:01.867Z,99394.34
